Time;durP1;ratioP1;P1;durP2;ratioP2;P2;SDS_P1;SDS_P2;PMS_P1;PMS_P2;Temp;Humidity;BMP_temperature;BMP_pressure;BME280_temperature;BME280_humidity;BME280_pressure;Samples;Min_cycle;Max_cycle;Signal;HPM_P1;HPM_P2
2023/04/02 00:00:36;;;;;;;16.03;12.63;;;;;;;;;;4991053;28;20465;-76
2023/04/02 00:03:09;;;;;;;16.30;11.83;;;;;;;;;;5009178;28;20038;-77
2023/04/02 00:05:53;;;;;;;20.83;11.97;;;;;;;;;;5007741;28;20255;-77
2023/04/02 00:08:23;;;;;;;18.93;12.40;;;;;;;;;;5005976;28;20443;-77
2023/04/02 00:10:54;;;;;;;21.70;13.40;;;;;;;;;;4995076;28;20109;-77
2023/04/02 00:13:39;;;;;;;20.33;13.70;;;;;;;;;;4992265;28;20107;-76
2023/04/02 00:16:06;;;;;;;19.80;13.63;;;;;;;;;;5006991;28;20030;-76
2023/04/02 00:18:33;;;;;;;23.30;15.37;;;;;;;;;;4994499;28;20107;-77
2023/04/02 00:20:59;;;;;;;25.17;15.93;;;;;;;;;;4993143;28;20125;-76
2023/04/02 00:23:26;;;;;;;24.57;15.50;;;;;;;;;;4993721;28;20168;-76
2023/04/02 00:25:52;;;;;;;21.00;13.13;;;;;;;;;;4995458;28;20088;-77
2023/04/02 00:28:19;;;;;;;14.43;8.63;;;;;;;;;;4990204;28;20034;-77
2023/04/02 00:30:46;;;;;;;6.80;5.70;;;;;;;;;;4985423;28;20113;-77
2023/04/02 00:33:16;;;;;;;5.67;4.30;;;;;;;;;;4988530;28;20041;-76
2023/04/02 00:35:42;;;;;;;5.23;4.27;;;;;;;;;;5005377;28;20459;-76
2023/04/02 00:38:17;;;;;;;3.10;1.80;;;;;;;;;;5005626;28;20100;-76
2023/04/02 00:40:43;;;;;;;2.23;2.03;;;;;;;;;;5008436;28;20044;-76
2023/04/02 00:43:15;;;;;;;1.40;1.30;;;;;;;;;;4989660;28;20038;-76
2023/04/02 00:45:49;;;;;;;1.63;1.30;;;;;;;;;;5006917;28;20472;-76
2023/04/02 00:48:28;;;;;;;1.60;1.50;;;;;;;;;;4998038;28;20050;-77
2023/04/02 00:50:55;;;;;;;7.13;2.10;;;;;;;;;;5006723;28;20174;-76
2023/04/02 00:53:25;;;;;;;4.00;2.13;;;;;;;;;;4994332;28;20045;-76
2023/04/02 00:55:51;;;;;;;2.13;1.93;;;;;;;;;;5006390;28;20041;-75
2023/04/02 00:58:32;;;;;;;2.07;1.77;;;;;;;;;;4986878;28;20026;-76
2023/04/02 01:00:58;;;;;;;1.90;1.70;;;;;;;;;;4988306;28;20045;-77
2023/04/02 01:03:27;;;;;;;3.00;2.30;;;;;;;;;;4985442;28;20037;-76
2023/04/02 01:06:01;;;;;;;2.77;2.37;;;;;;;;;;4990596;28;20108;-76
2023/04/02 01:08:33;;;;;;;3.50;2.47;;;;;;;;;;4986409;28;20113;-75
2023/04/02 01:11:02;;;;;;;2.75;2.05;;;;;;;;;;4994235;28;20034;-77
2023/04/02 01:13:28;;;;;;;3.13;2.57;;;;;;;;;;4995634;28;20072;-77
2023/04/02 01:15:56;;;;;;;3.67;2.40;;;;;;;;;;4995970;28;20034;-76
2023/04/02 01:19:01;;;;;;;3.10;2.70;;;;;;;;;;4992549;28;20033;-77
2023/04/02 01:21:41;;;;;;;2.80;2.57;;;;;;;;;;4950543;28;20030;-77
2023/04/02 01:24:08;;;;;;;2.90;2.50;;;;;;;;;;4933888;29;20543;-76
2023/04/02 01:26:35;;;;;;;3.10;2.73;;;;;;;;;;4950709;29;20035;-76
2023/04/02 01:29:04;;;;;;;3.03;2.27;;;;;;;;;;4950842;29;20424;-76
2023/04/02 01:31:32;;;;;;;2.80;2.50;;;;;;;;;;4950662;29;20055;-76
2023/04/02 01:34:00;;;;;;;3.47;2.80;;;;;;;;;;4949596;29;20047;-77
2023/04/02 01:36:28;;;;;;;3.20;2.73;;;;;;;;;;4952133;29;20035;-76
2023/04/02 01:39:08;;;;;;;2.53;2.33;;;;;;;;;;4949806;29;20051;-76
2023/04/02 01:42:06;;;;;;;2.73;2.53;;;;;;;;;;4934796;29;20043;-76
2023/04/02 01:44:40;;;;;;;2.50;2.30;;;;;;;;;;4933830;29;20039;-77
2023/04/02 01:47:10;;;;;;;2.57;2.33;;;;;;;;;;4948238;29;21796;-77
2023/04/02 01:49:36;;;;;;;3.73;2.77;;;;;;;;;;4950410;29;20065;-75
2023/04/02 01:52:02;;;;;;;4.57;2.70;;;;;;;;;;4956371;28;20041;-77
2023/04/02 01:54:28;;;;;;;2.43;2.23;;;;;;;;;;4992932;28;20040;-76
2023/04/02 01:56:56;;;;;;;2.60;2.10;;;;;;;;;;4993748;28;21619;-76
2023/04/02 01:59:22;;;;;;;5.43;2.13;;;;;;;;;;4996131;28;20370;-76
2023/04/02 02:01:52;;;;;;;2.40;2.20;;;;;;;;;;4993999;28;20044;-75
2023/04/02 02:04:21;;;;;;;2.80;2.50;;;;;;;;;;5004679;28;20062;-75
2023/04/02 02:06:47;;;;;;;2.57;2.37;;;;;;;;;;4993337;28;20398;-76
2023/04/02 02:09:25;;;;;;;2.00;1.80;;;;;;;;;;4995884;28;20064;-76
2023/04/02 02:11:51;;;;;;;2.97;2.30;;;;;;;;;;5006051;28;20442;-76
2023/04/02 02:14:20;;;;;;;2.30;1.90;;;7.60;99.90;;;;;;4998072;28;20084;-76
2023/04/02 02:16:47;;;;;;;2.73;2.13;;;7.60;99.90;;;;;;5009468;28;20056;-77
2023/04/02 02:19:30;;;;;;;6.50;2.20;;;7.60;99.90;;;;;;4993486;28;20095;-76
2023/04/02 02:22:17;;;;;;;2.20;1.90;;;7.50;99.90;;;;;;4993519;28;20084;-76
2023/04/02 02:24:43;;;;;;;1.80;1.50;;;;;;;;;;5009641;28;20038;-76
2023/04/02 02:27:36;;;;;;;2.50;1.83;;;;;;;;;;4988474;28;20098;-75
2023/04/02 02:30:09;;;;;;;2.20;2.00;;;;;;;;;;5011739;28;20034;-77
2023/04/02 02:32:35;;;;;;;;;;;;;;;;;;5009514;28;21667;-76
2023/04/02 02:35:11;;;;;;;4.43;2.10;;;;;;;;;;4996423;28;19916;-76
2023/04/02 02:37:41;;;;;;;2.17;1.50;;;7.50;99.90;;;;;;4999258;28;20026;-75
2023/04/02 02:40:16;;;;;;;2.00;1.73;;;7.40;99.90;;;;;;5006018;28;20088;-74
2023/04/02 02:42:49;;;;;;;2.20;2.00;;;7.30;99.90;;;;;;5009068;28;20053;-76
2023/04/02 02:45:23;;;;;;;2.07;1.93;;;7.30;99.90;;;;;;5010843;28;20056;-76
2023/04/02 02:47:51;;;;;;;3.97;2.40;;;7.30;99.90;;;;;;4989873;28;20394;-76
2023/04/02 02:50:23;;;;;;;2.97;1.90;;;7.30;99.90;;;;;;5010956;28;20048;-76
2023/04/02 02:52:53;;;;;;;2.53;2.33;;;;;;;;;;5009687;28;20029;-75
2023/04/02 02:55:31;;;;;;;3.53;2.57;;;7.20;99.90;;;;;;4999342;28;20049;-77
2023/04/02 02:58:06;;;;;;;2.57;2.27;;;7.20;99.90;;;;;;5008689;28;20030;-76
2023/04/02 03:00:32;;;;;;;2.53;2.13;;;;;;;;;;4993115;28;20030;-76
2023/04/02 03:03:02;;;;;;;2.33;2.10;;;7.20;99.90;;;;;;4989016;28;20127;-76
2023/04/02 03:05:29;;;;;;;3.07;2.20;;;7.20;99.90;;;;;;5005856;28;20061;-76
2023/04/02 03:07:56;;;;;;;2.53;2.23;;;;;;;;;;4991796;28;20037;-76
2023/04/02 03:10:29;;;;;;;2.50;2.30;;;;;;;;;;4995273;28;20022;-76
2023/04/02 03:13:05;;;;;;;2.78;2.53;;;;;;;;;;5010249;28;20116;-76
2023/04/02 03:15:37;;;;;;;4.57;2.80;;;;;;;;;;4994663;28;20121;-76
2023/04/02 03:18:21;;;;;;;3.13;2.55;;;;;;;;;;5008171;28;20034;-76
2023/04/02 03:20:49;;;;;;;3.90;2.53;;;;;;;;;;4987581;28;20458;-75
2023/04/02 03:23:22;;;;;;;2.63;1.97;;;;;;;;;;5011281;28;20025;-76
2023/04/02 03:25:47;;;;;;;;;;;;;;;;;;5010966;28;20037;-76
2023/04/02 03:28:18;;;;;;;2.43;2.13;;;;;;;;;;5009700;28;20778;-76
2023/04/02 03:30:49;;;;;;;1.67;1.57;;;;;;;;;;4990818;28;20030;-76
2023/04/02 03:33:35;;;;;;;2.23;1.93;;;;;;;;;;5001878;28;20026;-76
2023/04/02 03:36:05;;;;;;;2.33;2.13;;;7.30;99.90;;;;;;4991073;28;20122;-76
2023/04/02 03:38:35;;;;;;;2.67;2.13;;;7.00;99.90;;;;;;5006043;28;20032;-75
2023/04/02 03:41:01;;;;;;;2.10;1.90;;;7.00;99.90;;;;;;5008776;28;20061;-76
2023/04/02 03:43:38;;;;;;;1.93;1.60;;;7.00;99.90;;;;;;4994680;28;20057;-76
2023/04/02 03:46:22;;;;;;;2.60;2.33;;;;;;;;;;5008257;28;20446;-76
2023/04/02 03:48:51;;;;;;;4.77;1.80;;;;;;;;;;5007840;28;20025;-76
2023/04/02 03:51:16;;;;;;;3.57;2.93;;;;;;;;;;5008961;28;20025;-76
2023/04/02 03:53:43;;;;;;;2.70;2.23;;;;;;;;;;5006996;28;20030;-77
2023/04/02 03:56:11;;;;;;;3.00;2.70;;;;;;;;;;4998152;28;20029;-76
2023/04/02 03:58:48;;;;;;;3.97;3.30;;;;;;;;;;5006675;28;20037;-76
2023/04/02 04:01:26;;;;;;;3.23;2.83;;;;;;;;;;5008751;28;20121;-77
2023/04/02 04:03:56;;;;;;;4.67;3.60;;;;;;;;;;4990482;28;20057;-76
2023/04/02 04:06:29;;;;;;;6.77;4.17;;;;;;;;;;5006224;28;20029;-77
2023/04/02 04:08:55;;;;;;;4.27;3.80;;;;;;;;;;4992004;28;20034;-77
2023/04/02 04:11:32;;;;;;;4.57;4.00;;;;;;;;;;4996906;28;20026;-77
2023/04/02 04:14:05;;;;;;;5.27;4.30;;;;;;;;;;4987125;28;20034;-77
2023/04/02 04:16:34;;;;;;;5.20;4.28;;;;;;;;;;4994676;28;20101;-76
2023/04/02 04:19:07;;;;;;;4.73;4.23;;;;;;;;;;5009027;28;20029;-77
2023/04/02 04:21:38;;;;;;;7.63;5.30;;;;;;;;;;4986213;28;20026;-75
2023/04/02 04:24:06;;;;;;;5.87;4.57;;;;;;;;;;5008612;28;20057;-76
2023/04/02 04:26:39;;;;;;;4.60;4.10;;;;;;;;;;4993879;28;20022;-76
2023/04/02 04:29:23;;;;;;;4.97;4.43;;;;;;;;;;4995082;28;20060;-76
2023/04/02 04:31:54;;;;;;;5.17;4.53;;;;;;;;;;5006966;28;20026;-77
2023/04/02 04:34:22;;;;;;;5.00;4.00;;;;;;;;;;5009003;28;20491;-77
2023/04/02 04:37:00;;;;;;;6.00;3.90;;;;;;;;;;4991853;28;20451;-76
2023/04/02 04:39:42;;;;;;;5.37;3.87;;;;;;;;;;5006182;28;20052;-76
2023/04/02 04:42:15;;;;;;;4.90;4.37;;;;;;;;;;4994706;28;20053;-75
2023/04/02 04:44:45;;;;;;;5.03;3.97;;;;;;;;;;4994735;28;20037;-76
2023/04/02 04:47:15;;;;;;;7.17;4.33;;;;;;;;;;5008072;28;20025;-76
2023/04/02 04:50:07;;;;;;;4.27;3.50;;;;;;;;;;5008276;28;20026;-76
2023/04/02 04:52:35;;;;;;;4.38;3.78;;;;;;;;;;4970535;28;20510;-76
2023/04/02 04:55:03;;;;;;;5.27;3.87;;;;;;;;;;4989172;28;20121;-77
2023/04/02 04:57:28;;;;;;;4.80;4.20;;;;;;;;;;5008136;28;20045;-76
2023/04/02 04:59:58;;;;;;;5.63;4.47;;;;;;;;;;4990316;28;20025;-76
2023/04/02 05:02:27;;;;;;;5.47;4.80;;;;;;;;;;4997489;28;20037;-76
2023/04/02 05:04:55;;;;;;;4.40;4.00;;;;;;;;;;4993712;28;20415;-76
2023/04/02 05:07:21;;;;;;;6.27;4.83;;;;;;;;;;4990269;28;20029;-77
2023/04/02 05:09:53;;;;;;;6.80;4.57;;;;;;;;;;4994340;28;20022;-76
2023/04/02 05:12:26;;;;;;;4.28;3.63;;;;;;;;;;4993772;28;20077;-76
2023/04/02 05:14:58;;;;;;;4.37;3.83;;;;;;;;;;4993322;28;20117;-76
2023/04/02 05:17:30;;;;;;;4.75;3.78;;;;;;;;;;4991413;28;20037;-75
2023/04/02 05:20:06;;;;;;;6.00;3.67;;;;;;;;;;5005407;28;20026;-75
2023/04/02 05:23:02;;;;;;;5.63;4.57;;;;;;;;;;5006561;28;20038;-76
2023/04/02 05:25:29;;;;;;;5.53;4.40;;;;;;;;;;4958576;28;20122;-76
2023/04/02 05:28:00;;;;;;;5.57;4.50;;;;;;;;;;5005905;28;20065;-75
2023/04/02 05:30:26;;;;;;;5.70;4.27;;;;;;;;;;5006027;28;20125;-75
2023/04/02 05:33:18;;;;;;;4.30;3.70;;;;;;;;;;5005715;28;20120;-76
2023/04/02 05:35:47;;;;;;;5.53;4.93;;;;;;;;;;4990885;28;20044;-75
2023/04/02 05:38:26;;;;;;;6.57;5.20;;;6.30;99.90;;;;;;4986522;28;20026;-76
2023/04/02 05:40:58;;;;;;;8.87;4.20;;;;;;;;;;4994159;28;20042;-76
2023/04/02 05:43:30;;;;;;;4.97;4.47;;;6.10;99.90;;;;;;4985052;28;20828;-75
2023/04/02 05:46:04;;;;;;;3.60;3.30;;;6.20;99.90;;;;;;4990247;28;20057;-74
2023/04/02 05:48:42;;;;;;;5.70;4.57;;;6.10;99.90;;;;;;5007091;28;20022;-75
2023/04/02 05:51:14;;;;;;;5.40;3.83;;;6.10;99.90;;;;;;4985995;28;20026;-76
2023/04/02 05:53:45;;;;;;;;;;;6.10;99.90;;;;;;5007480;28;20067;-75
2023/04/02 05:56:19;;;;;;;5.83;4.90;;;6.70;99.90;;;;;;4989123;28;19910;-76
2023/04/02 05:59:03;;;;;;;7.03;4.20;;;6.10;99.90;;;;;;5002882;28;20022;-75
2023/04/02 06:01:50;;;;;;;6.70;5.53;;;;;;;;;;4988242;28;20033;-75
2023/04/02 06:04:16;;;;;;;6.80;4.80;;;;;;;;;;5005906;28;20077;-76
2023/04/02 06:06:49;;;;;;;6.57;5.33;;;;;;;;;;4991765;28;20107;-76
2023/04/02 06:09:18;;;;;;;6.32;4.00;;;;;;;;;;5007126;28;20052;-75
2023/04/02 06:11:46;;;;;;;6.73;5.40;;;;;;;;;;4989549;28;20080;-75
2023/04/02 06:14:12;;;;;;;7.87;6.00;;;;;;;;;;5007173;28;20042;-76
2023/04/02 06:16:38;;;;;;;7.87;6.33;;;;;;;;;;4991599;28;20026;-76
2023/04/02 06:19:12;;;;;;;7.63;6.33;;;;;;;;;;4997511;28;20033;-75
2023/04/02 06:21:45;;;;;;;8.33;6.27;;;;;;;;;;4986689;28;20482;-76
2023/04/02 06:24:14;;;;;;;8.60;6.77;;;;;;;;;;5002650;28;20466;-77
2023/04/02 06:26:48;;;;;;;9.70;6.80;;;;;;;;;;4988497;28;20065;-76
2023/04/02 06:29:16;;;;;;;12.07;7.53;;;;;;;;;;4986358;28;20065;-76
2023/04/02 06:31:45;;;;;;;8.50;6.17;;;;;;;;;;4992305;28;20030;-76
2023/04/02 06:34:18;;;;;;;8.83;6.83;;;;;;;;;;5003513;28;20501;-77
2023/04/02 06:36:45;;;;;;;9.77;7.80;;;;;;;;;;5007650;28;20033;-76
2023/04/02 06:39:16;;;;;;;12.50;8.13;;;;;;;;;;4988332;28;20035;-77
2023/04/02 06:41:42;;;;;;;11.80;7.77;;;;;;;;;;5005404;28;20041;-76
2023/04/02 06:44:17;;;;;;;13.23;9.00;;;;;;;;;;4988540;28;20053;-75
2023/04/02 06:46:45;;;;;;;9.00;6.90;;;;;;;;;;5005783;28;20034;-76
2023/04/02 06:49:14;;;;;;;11.50;7.83;;;;;;;;;;4992344;28;20036;-76
2023/04/02 06:51:41;;;;;;;11.17;7.03;;;;;;;;;;4991383;28;20121;-76
2023/04/02 06:54:12;;;;;;;11.47;7.80;;;;;;;;;;4986620;28;20085;-76
2023/04/02 06:56:38;;;;;;;12.83;9.60;;;;;;;;;;4983303;28;20037;-76
2023/04/02 06:59:06;;;;;;;12.17;8.77;;;;;;;;;;5006762;28;20513;-76
2023/04/02 07:01:33;;;;;;;10.90;7.77;;;;;;;;;;4994366;28;20049;-76
2023/04/02 07:03:59;;;;;;;10.97;6.27;;;5.50;99.90;;;;;;5008526;28;20124;-76
2023/04/02 07:06:24;;;;;;;10.10;7.23;;;5.60;99.90;;;;;;4992784;28;20140;-76
2023/04/02 07:08:50;;;;;;;11.33;7.67;;;;;;;;;;4994089;28;20030;-76
2023/04/02 07:11:20;;;;;;;10.77;6.27;;;5.60;99.90;;;;;;4996807;28;20037;-76
2023/04/02 07:13:48;;;;;;;10.40;7.40;;;5.50;99.90;;;;;;5008960;28;20543;-77
2023/04/02 07:16:16;;;;;;;12.23;8.07;;;5.60;99.90;;;;;;4993185;28;20038;-76
2023/04/02 07:18:42;;;;;;;9.87;7.27;;;5.60;99.90;;;;;;4993343;28;20124;-76
2023/04/02 07:21:10;;;;;;;11.67;7.63;;;5.60;99.90;;;;;;4991989;28;20120;-76
2023/04/02 07:23:36;;;;;;;11.23;7.57;;;;;;;;;;5007449;28;20034;-76
2023/04/02 07:26:03;;;;;;;11.33;8.27;;;5.60;99.90;;;;;;4995143;28;20030;-76
2023/04/02 07:28:29;;;;;;;11.00;6.70;;;;;;;;;;5009660;28;20026;-77
2023/04/02 07:30:55;;;;;;;12.90;7.40;;;;;;;;;;4992081;28;20446;-76
2023/04/02 07:33:28;;;;;;;9.80;5.93;;;5.50;99.90;;;;;;4995288;28;20034;-75
2023/04/02 07:35:57;;;;;;;13.57;6.67;;;;;;;;;;4991684;28;20038;-76
2023/04/02 07:38:23;;;;;;;10.90;6.87;;;;;;;;;;4987147;28;20041;-76
2023/04/02 07:40:49;;;;;;;17.47;7.40;;;;;;;;;;5009674;28;20084;-76
2023/04/02 07:43:15;;;;;;;11.50;7.33;;;;;;;;;;4994954;28;20061;-76
2023/04/02 07:45:41;;;;;;;13.93;7.63;;;;;;;;;;5001481;28;20490;-77
2023/04/02 07:48:08;;;;;;;13.17;7.87;;;;;;;;;;4992580;28;20029;-76
2023/04/02 07:50:37;;;;;;;12.43;7.83;;;;;;;;;;5006466;28;20340;-76
2023/04/02 07:53:03;;;;;;;14.93;8.30;;;;;;;;;;4988000;28;20029;-77
2023/04/02 07:55:29;;;;;;;15.80;8.80;;;;;;;;;;4989158;28;20033;-76
2023/04/02 07:57:57;;;;;;;16.87;7.80;;;;;;;;;;4997075;28;20117;-77
2023/04/02 08:00:27;;;;;;;12.63;8.27;;;;;;;;;;4991488;28;20133;-76
2023/04/02 08:02:53;;;;;;;14.57;8.00;;;;;;;;;;4990352;28;20039;-76
2023/04/02 08:05:19;;;;;;;10.90;7.27;;;;;;;;;;5006791;28;20062;-76
2023/04/02 08:07:55;;;;;;;12.47;8.47;;;;;;;;;;4987321;28;20031;-76
2023/04/02 08:10:22;;;;;;;12.70;7.40;;;;;;;;;;4995973;28;20037;-76
2023/04/02 08:12:48;;;;;;;11.40;7.03;;;;;;;;;;5006360;28;20038;-76
2023/04/02 08:15:15;;;;;;;14.67;8.10;;;;;;;;;;4986586;28;20187;-75
2023/04/02 08:17:41;;;;;;;14.33;8.50;;;;;;;;;;5008638;28;20129;-77
2023/04/02 08:20:09;;;;;;;15.10;7.50;;;;;;;;;;5008394;28;20026;-76
2023/04/02 08:22:35;;;;;;;14.03;7.83;;;;;;;;;;4987458;28;20473;-76
2023/04/02 08:25:03;;;;;;;10.60;6.50;;;;;;;;;;5007631;28;20030;-76
2023/04/02 08:27:29;;;;;;;11.00;6.37;;;;;;;;;;4994161;28;20038;-76
2023/04/02 08:29:58;;;;;;;11.33;6.87;;;;;;;;;;4987896;28;20033;-76
2023/04/02 08:32:27;;;;;;;12.77;8.30;;;;;;;;;;4995339;28;20342;-76
2023/04/02 08:34:53;;;;;;;13.57;8.10;;;;;;;;;;4993252;28;20515;-77
2023/04/02 08:37:19;;;;;;;12.73;7.80;;;5.90;99.90;;;;;;4994136;28;20450;-76
2023/04/02 08:39:47;;;;;;;16.17;8.27;;;;;;;;;;4990582;28;20030;-76
2023/04/02 08:42:34;;;;;;;15.00;8.63;;;5.80;99.90;;;;;;4990278;28;21417;-76
2023/04/02 08:45:11;;;;;;;12.70;7.13;;;6.00;99.90;;;;;;4994493;28;20036;-76
2023/04/02 08:47:39;;;;;;;11.83;7.43;;;5.90;99.90;;;;;;5005269;28;20465;-76
2023/04/02 08:50:40;;;;;;;11.27;6.70;;;5.90;99.90;;;;;;4990582;28;20080;-76
2023/04/02 08:53:17;;;;;;;15.30;8.57;;;;;;;;;;4990583;28;20037;-76
2023/04/02 08:56:07;;;;;;;10.30;5.80;;;;;;;;;;4986624;28;20040;-76
2023/04/02 08:58:33;;;;;;;13.97;7.77;;;;;;;;;;5005969;28;20367;-76
2023/04/02 09:01:01;;;;;;;12.40;6.93;;;;;;;;;;4997331;28;20483;-76
2023/04/02 09:03:30;;;;;;;13.37;8.63;;;;;;;;;;4992107;28;20035;-76
2023/04/02 09:05:59;;;;;;;13.77;6.90;;;;;;;;;;5007173;28;20049;-76
2023/04/02 09:08:26;;;;;;;15.07;7.50;;;;;;;;;;4988548;28;20019;-76
2023/04/02 09:10:58;;;;;;;14.10;6.70;;;;;;;;;;4994441;28;20112;-77
2023/04/02 09:13:25;;;;;;;15.30;7.57;;;;;;;;;;4997320;28;20117;-77
2023/04/02 09:16:00;;;;;;;10.87;6.33;;;;;;;;;;4993907;28;20044;-76
2023/04/02 09:18:27;;;;;;;13.83;5.93;;;;;;;;;;5007914;28;20038;-76
2023/04/02 09:20:53;;;;;;;11.77;6.13;;;;;;;;;;5007346;28;20033;-75
2023/04/02 09:23:21;;;;;;;11.63;6.73;;;;;;;;;;4993773;28;20034;-75
2023/04/02 09:25:49;;;;;;;11.23;6.03;;;;;;;;;;4984216;28;20018;-76
2023/04/02 09:28:15;;;;;;;12.43;6.30;;;;;;;;;;4994166;28;20489;-76
2023/04/02 09:30:55;;;;;;;14.07;7.00;;;;;;;;;;4986752;28;20038;-76
2023/04/02 09:33:39;;;;;;;11.73;6.27;;;;;;;;;;4990478;28;20046;-76
2023/04/02 09:36:05;;;;;;;10.67;5.33;;;;;;;;;;4992894;28;20057;-76
2023/04/02 09:38:31;;;;;;;8.43;5.60;;;;;;;;;;4987624;28;20037;-77
2023/04/02 09:41:02;;;;;;;11.20;7.03;;;;;;;;;;4989171;28;20026;-76
2023/04/02 09:43:30;;;;;;;8.70;5.33;;;;;;;;;;5007111;28;20458;-76
2023/04/02 09:46:02;;;;;;;8.23;5.27;;;;;;;;;;4999445;28;20061;-76
2023/04/02 09:48:34;;;;;;;9.95;5.15;;;;;;;;;;4992679;28;20248;-76
2023/04/02 09:51:05;;;;;;;8.13;5.13;;;;;;;;;;5007550;28;20092;-75
2023/04/02 09:53:36;;;;;;;12.10;5.50;;;;;;;;;;4993657;28;20560;-75
2023/04/02 09:56:09;;;;;;;10.87;5.90;;;;;;;;;;4987871;28;20019;-76
2023/04/02 09:58:35;;;;;;;9.83;5.90;;;;;;;;;;4984503;28;20041;-77
2023/04/02 10:01:03;;;;;;;8.13;5.27;;;;;;;;;;4988140;28;20120;-75
2023/04/02 10:03:33;;;;;;;9.90;5.23;;;;;;;;;;4989343;28;20083;-76
2023/04/02 10:06:10;;;;;;;11.57;6.67;;;;;;;;;;4991524;28;20668;-74
2023/04/02 10:08:37;;;;;;;8.17;5.53;;;;;;;;;;4988722;28;20528;-76
2023/04/02 10:11:07;;;;;;;8.93;5.40;;;;;;;;;;4986024;28;20033;-77
2023/04/02 10:13:39;;;;;;;8.87;5.57;;;;;;;;;;4992562;28;20117;-77
2023/04/02 10:16:08;;;;;;;9.43;5.67;;;;;;;;;;4984385;28;20022;-75
2023/04/02 10:18:46;;;;;;;9.20;5.43;;;;;;;;;;4996083;28;20037;-76
2023/04/02 10:21:18;;;;;;;10.17;6.03;;;;;;;;;;4984524;28;20040;-76
2023/04/02 10:23:44;;;;;;;10.30;5.27;;;;;;;;;;5004508;28;20030;-75
2023/04/02 10:26:22;;;;;;;11.33;5.83;;;;;;;;;;4992155;28;20042;-76
2023/04/02 10:28:48;;;;;;;12.83;5.83;;;;;;;;;;4992660;28;21875;-76
2023/04/02 10:31:24;;;;;;;9.37;5.90;;;;;;;;;;4986961;28;20026;-75
2023/04/02 10:33:51;;;;;;;10.93;6.03;;;;;;;;;;4988400;28;20038;-75
2023/04/02 10:36:34;;;;;;;9.20;5.30;;;;;;;;;;5003986;28;20108;-76
2023/04/02 10:39:15;;;;;;;9.20;5.63;;;;;;;;;;4992767;28;20042;-76
2023/04/02 10:41:41;;;;;;;11.33;5.60;;;;;;;;;;5008025;28;20458;-76
2023/04/02 10:44:26;;;;;;;10.27;5.67;;;;;;;;;;4995634;28;20068;-76
2023/04/02 10:47:27;;;;;;;8.33;4.97;;;;;;;;;;5007566;28;20026;-75
2023/04/02 10:49:59;;;;;;;8.43;4.80;;;;;;;;;;4929513;29;20142;-76
2023/04/02 10:52:28;;;;;;;8.10;5.75;;;;;;;;;;4995765;28;20077;-76
2023/04/02 10:54:56;;;;;;;10.83;6.03;;;;;;;;;;5011990;28;20026;-77
2023/04/02 10:57:42;;;;;;;7.07;5.33;;;;;;;;;;4992956;28;20030;-77
2023/04/02 11:00:08;;;;;;;11.53;4.63;;;;;;;;;;5004060;28;20030;-76
2023/04/02 11:02:34;;;;;;;11.57;4.93;;;;;;;;;;4995427;28;20026;-75
2023/04/02 11:05:03;;;;;;;8.03;4.60;;;;;;;;;;4992565;28;20037;-75
2023/04/02 11:07:31;;;;;;;10.80;6.00;;;;;;;;;;4986971;28;20925;-75
2023/04/02 11:09:57;;;;;;;7.10;4.70;;;;;;;;;;5010268;28;20029;-75
2023/04/02 11:12:32;;;;;;;9.23;4.50;;;;;;;;;;4989948;28;20037;-75
2023/04/02 11:14:59;;;;;;;7.60;4.10;;;;;;;;;;4993907;28;20034;-75
2023/04/02 11:17:27;;;;;;;7.27;4.53;;;;;;;;;;4996357;28;20037;-75
2023/04/02 11:19:54;;;;;;;8.57;4.83;;;;;;;;;;5008286;28;20030;-76
2023/04/02 11:22:21;;;;;;;8.07;4.30;;;;;;;;;;4999132;28;20069;-76
2023/04/02 11:24:51;;;;;;;9.07;4.70;;;;;;;;;;4995236;28;20029;-75
2023/04/02 11:27:20;;;;;;;10.10;5.03;;;;;;;;;;4988714;28;20037;-75
2023/04/02 11:29:46;;;;;;;7.50;4.30;;;;;;;;;;4989550;28;20033;-76
2023/04/02 11:32:14;;;;;;;6.83;4.00;;;;;;;;;;4993682;28;20025;-75
2023/04/02 11:34:40;;;;;;;7.23;4.67;;;;;;;;;;4988455;28;20088;-76
2023/04/02 11:37:24;;;;;;;7.63;4.80;;;;;;;;;;4996835;28;20675;-77
2023/04/02 11:39:55;;;;;;;6.90;5.03;;;;;;;;;;4994664;28;20026;-76
2023/04/02 11:42:23;;;;;;;6.53;4.60;;;;;;;;;;5007944;28;20022;-75
2023/04/02 11:44:49;;;;;;;6.50;4.60;;;;;;;;;;5009315;28;20037;-75
2023/04/02 11:47:15;;;;;;;7.43;4.07;;;;;;;;;;5009973;28;20017;-76
2023/04/02 11:50:08;;;;;;;7.90;4.93;;;;;;;;;;5009038;28;20087;-75
2023/04/02 11:52:36;;;;;;;9.82;5.25;;;;;;;;;;4992994;28;20096;-77
2023/04/02 11:55:02;;;;;;;9.97;5.43;;;;;;;;;;4987730;28;20457;-76
2023/04/02 11:57:45;;;;;;;10.50;5.10;;;;;;;;;;4994581;28;20052;-75
2023/04/02 12:00:30;;;;;;;9.60;5.03;;;;;;;;;;4989793;28;20034;-76
2023/04/02 12:03:15;;;;;;;8.43;4.30;;;;;;;;;;4989226;28;20034;-75
2023/04/02 12:06:12;;;;;;;6.20;3.80;;;;;;;;;;5010666;28;20037;-76
2023/04/02 12:08:41;;;;;;;7.63;4.80;;;;;;;;;;4960784;28;20033;-75
2023/04/02 12:11:07;;;;;;;8.17;4.87;;;;;;;;;;4992464;28;20038;-75
2023/04/02 12:13:39;;;;;;;6.40;4.70;;;;;;;;;;4988694;28;20340;-76
2023/04/02 12:16:06;;;;;;;7.53;4.40;;;;;;;;;;4991566;28;20470;-75
2023/04/02 12:18:35;;;;;;;7.13;4.60;;;;;;;;;;5008211;28;20045;-75
2023/04/02 12:21:01;;;;;;;6.00;4.00;;;;;;;;;;4994952;28;20100;-76
2023/04/02 12:23:30;;;;;;;6.97;4.57;;;;;;;;;;4995359;28;20102;-75
2023/04/02 12:26:07;;;;;;;9.90;5.07;;;;;;;;;;4992094;28;20025;-76
2023/04/02 12:28:33;;;;;;;8.30;4.50;;;;;;;;;;4994772;28;20114;-76
2023/04/02 12:31:07;;;;;;;8.20;4.50;;;;;;;;;;4994257;28;20041;-75
2023/04/02 12:33:37;;;;;;;7.57;5.03;;;;;;;;;;4995140;28;20030;-75
2023/04/02 12:36:22;;;;;;;7.50;4.23;;;;;;;;;;4991760;28;20867;-76
2023/04/02 12:38:56;;;;;;;8.33;4.43;;;;;;;;;;4991776;28;20041;-75
2023/04/02 12:41:28;;;;;;;7.40;4.57;;;;;;;;;;4987746;28;20099;-75
2023/04/02 12:43:57;;;;;;;10.37;4.83;;;;;;;;;;5009260;28;20022;-76
2023/04/02 12:46:24;;;;;;;6.03;3.83;;;;;;;;;;5008050;28;20025;-77
2023/04/02 12:48:51;;;;;;;7.50;4.23;;;;;;;;;;5002897;28;20018;-76
2023/04/02 12:51:17;;;;;;;5.47;4.33;;;;;;;;;;4991687;28;20034;-76
2023/04/02 12:53:48;;;;;;;8.27;5.00;;;;;;;;;;4987098;28;20068;-76
2023/04/02 12:56:31;;;;;;;8.40;4.93;;;;;;;;;;5006727;28;20033;-77
2023/04/02 12:58:58;;;;;;;7.27;4.03;;;;;;;;;;4986339;28;21596;-77
2023/04/02 13:01:30;;;;;;;7.47;3.53;;;;;;;;;;4989350;28;20030;-75
2023/04/02 13:04:25;;;;;;;7.83;4.23;;;;;;;;;;4986675;28;20038;-76
2023/04/02 13:06:55;;;;;;;6.60;4.27;;;;;;;;;;5006197;28;20524;-76
2023/04/02 13:09:47;;;;;;;7.73;4.27;;;;;;;;;;4985572;28;20030;-75
2023/04/02 13:12:25;;;;;;;9.85;5.00;;;;;;;;;;4987535;28;20049;-76
2023/04/02 13:14:52;;;;;;;7.83;4.47;;;;;;;;;;4986113;28;20378;-76
2023/04/02 13:17:36;;;;;;;6.83;4.37;;;;;;;;;;4988884;28;20065;-76
2023/04/02 13:20:21;;;;;;;8.63;4.37;;;;;;;;;;5007350;28;20116;-76
2023/04/02 13:22:47;;;;;;;6.77;4.40;;;;;;;;;;5007221;28;20443;-76
2023/04/02 13:25:13;;;;;;;6.97;3.63;;;;;;;;;;4995320;28;20128;-75
2023/04/02 13:27:39;;;;;;;4.77;3.47;;;;;;;;;;4993687;28;20506;-76
2023/04/02 13:30:09;;;;;;;5.77;3.30;;;;;;;;;;4987041;28;20029;-76
2023/04/02 13:32:36;;;;;;;4.87;3.27;;;;;;;;;;5005990;28;20411;-76
2023/04/02 13:35:02;;;;;;;5.63;3.23;;;;;;;;;;4988403;28;20057;-76
2023/04/02 13:37:31;;;;;;;5.83;3.63;;;;;;;;;;4996220;28;20029;-76
2023/04/02 13:39:57;;;;;;;5.50;3.43;;;;;;;;;;4994703;28;20562;-76
2023/04/02 13:42:23;;;;;;;6.20;3.30;;;;;;;;;;5007930;28;20117;-76
2023/04/02 13:44:49;;;;;;;4.80;3.20;;;;;;;;;;4990990;28;20416;-76
2023/04/02 13:47:15;;;;;;;5.10;3.50;;;;;;;;;;5007737;28;20030;-76
2023/04/02 13:49:41;;;;;;;4.27;2.70;;;;;;;;;;4990388;28;20025;-76
2023/04/02 13:52:10;;;;;;;5.07;3.20;;;;;;;;;;4990721;28;20087;-76
2023/04/02 13:54:51;;;;;;;7.80;4.00;;;;;;;;;;5005110;28;20116;-76
2023/04/02 13:57:18;;;;;;;4.90;3.20;;;;;;;;;;5006291;28;20108;-76
2023/04/02 13:59:46;;;;;;;5.17;3.27;;;;;;;;;;4994089;28;20037;-76
2023/04/02 14:02:15;;;;;;;7.07;2.83;;;;;;;;;;4985528;28;21772;-76
2023/04/02 14:04:43;;;;;;;6.83;3.50;;;;;;;;;;4988418;28;20029;-76
2023/04/02 14:07:28;;;;;;;4.57;2.83;;;;;;;;;;4986220;28;20034;-76
2023/04/02 14:09:54;;;;;;;3.97;2.60;;;;;;;;;;4992950;28;20566;-77
2023/04/02 14:12:40;;;;;;;4.60;3.20;;;;;;;;;;4994581;28;20062;-75
2023/04/02 14:15:15;;;;;;;5.80;3.53;;;;;;;;;;5012313;28;20026;-76
2023/04/02 14:18:20;;;;;;;4.17;2.97;;;;;;;;;;5013659;28;20429;-75
2023/04/02 14:20:52;;;;;;;3.13;2.23;;;;;;;;;;4935236;29;20036;-76
2023/04/02 14:23:31;;;;;;;5.97;2.92;;;;;;;;;;4936398;29;20027;-75
2023/04/02 14:26:16;;;;;;;5.13;3.07;;;;;;;;;;4989494;28;20038;-76
2023/04/02 14:28:44;;;;;;;7.03;2.80;;;;;;;;;;4991656;28;20033;-76
2023/04/02 14:31:13;;;;;;;4.00;2.57;;;;;;;;;;5013726;28;20034;-76
2023/04/02 14:33:46;;;;;;;4.07;2.67;;;;;;;;;;4999880;28;20132;-76
2023/04/02 14:36:16;;;;;;;5.17;2.57;;;;;;;;;;4991703;28;20060;-76
2023/04/02 14:38:42;;;;;;;4.33;2.87;;;;;;;;;;5011794;28;20026;-77
2023/04/02 14:41:18;;;;;;;4.67;2.60;;;;;;;;;;4999092;28;20821;-76
2023/04/02 14:43:46;;;;;;;2.97;2.23;;;;;;;;;;4994806;28;20034;-76
2023/04/02 14:46:12;;;;;;;5.83;2.70;;;;;;;;;;5002292;28;20030;-76
2023/04/02 14:48:49;;;;;;;4.50;3.10;;;;;;;;;;4999744;28;20032;-76
2023/04/02 14:51:30;;;;;;;5.90;2.63;;;;;;;;;;5012229;28;20037;-77